Time;durP1;ratioP1;P1;durP2;ratioP2;P2;SDS_P1;SDS_P2;PMS_P1;PMS_P2;Temp;Humidity;BMP_temperature;BMP_pressure;BME280_temperature;BME280_humidity;BME280_pressure;Samples;Min_cycle;Max_cycle;Signal;HPM_P1;HPM_P2
2023/07/14 00:01:29;;;;;;;;;;;14.90;99.90;;;;;;5059458;28;19983;-84
2023/07/14 00:03:54;;;;;;;;;;;14.90;99.90;;;;;;5053510;28;20008;-84
2023/07/14 00:06:20;;;;;;;;;;;15.00;99.90;;;;;;5057053;28;20007;-84
2023/07/14 00:08:46;;;;;;;;;;;14.90;99.90;;;;;;5064077;28;19937;-84
2023/07/14 00:11:22;;;;;;;;;;;14.90;99.90;;;;;;5052464;28;19953;-84
2023/07/14 00:13:48;;;;;;;;;;;14.90;99.90;;;;;;5054646;28;20325;-85
2023/07/14 00:16:17;;;;;;;;;;;14.90;99.90;;;;;;5054199;28;20342;-86
2023/07/14 00:18:42;;;;;;;;;;;14.90;99.90;;;;;;5035531;28;19929;-85
2023/07/14 00:21:18;;;;;;;;;;;14.90;99.90;;;;;;5051522;28;19931;-85
2023/07/14 00:23:44;;;;;;;;;;;14.80;99.90;;;;;;5044653;28;19933;-84
2023/07/14 00:26:14;;;;;;;;;;;14.80;99.90;;;;;;5030441;28;20020;-87
2023/07/14 00:28:40;;;;;;;;;;;14.80;99.90;;;;;;5034955;28;20375;-85
2023/07/14 00:31:09;;;;;;;;;;;14.80;99.90;;;;;;5038735;28;19932;-85
2023/07/14 00:33:35;;;;;;;;;;;14.80;99.90;;;;;;5058323;28;19951;-84
2023/07/14 00:36:00;;;;;;;;;;;14.80;99.90;;;;;;5050684;28;19929;-85
2023/07/14 00:38:26;;;;;;;;;;;14.80;99.90;;;;;;5035330;28;19975;-84
2023/07/14 00:40:51;;;;;;;;;;;14.80;99.90;;;;;;5035699;28;20003;-84
2023/07/14 00:43:19;;;;;;;;;;;14.80;99.90;;;;;;5039606;28;19929;-85
2023/07/14 00:45:49;;;;;;;;;;;14.80;99.90;;;;;;5021240;28;20402;-84
2023/07/14 00:48:15;;;;;;;;;;;14.70;99.90;;;;;;5052994;28;19932;-84
2023/07/14 00:50:42;;;;;;;;;;;14.70;99.90;;;;;;5066707;28;19938;-84
2023/07/14 00:53:14;;;;;;;;;;;14.70;99.90;;;;;;5054252;28;20093;-84
2023/07/14 00:55:45;;;;;;;;;;;14.70;99.90;;;;;;5035508;28;19991;-83
2023/07/14 00:58:12;;;;;;;;;;;14.60;99.90;;;;;;5034782;28;19925;-83
2023/07/14 01:00:39;;;;;;;;;;;14.60;99.90;;;;;;5052744;28;19925;-84
2023/07/14 01:03:13;;;;;;;;;;;14.50;99.90;;;;;;5068980;28;19928;-84
2023/07/14 01:05:39;;;;;;;;;;;14.50;99.90;;;;;;5052730;28;19987;-85
2023/07/14 01:08:04;;;;;;;;;;;14.50;99.90;;;;;;5052717;28;19964;-84
2023/07/14 01:10:30;;;;;;;;;;;14.50;99.90;;;;;;5052870;28;19925;-84
2023/07/14 01:12:59;;;;;;;;;;;14.50;99.90;;;;;;5057361;28;20429;-83
2023/07/14 01:15:25;;;;;;;;;;;14.50;99.90;;;;;;5034700;28;19939;-83
2023/07/14 01:17:51;;;;;;;;;;;14.50;99.90;;;;;;5052444;28;19983;-84
2023/07/14 01:20:18;;;;;;;;;;;14.50;99.90;;;;;;5052590;28;19925;-84
2023/07/14 01:22:43;;;;;;;;;;;14.50;99.90;;;;;;5051370;28;19924;-84
2023/07/14 01:25:28;;;;;;;;;;;14.40;99.90;;;;;;5036278;28;19929;-84
2023/07/14 01:27:53;;;;;;;;;;;14.40;99.90;;;;;;5034717;28;19950;-84
2023/07/14 01:30:19;;;;;;;;;;;14.30;99.90;;;;;;5034436;28;19925;-83
2023/07/14 01:32:47;;;;;;;;;;;14.30;99.90;;;;;;5034696;28;19979;-84
2023/07/14 01:35:13;;;;;;;;;;;14.30;99.90;;;;;;5047890;28;20367;-84
2023/07/14 01:37:39;;;;;;;;;;;14.30;99.90;;;;;;5034441;28;19974;-85
2023/07/14 01:40:13;;;;;;;;;;;14.20;99.90;;;;;;5052035;28;19983;-83
2023/07/14 01:42:40;;;;;;;;;;;14.20;99.90;;;;;;5042392;28;19930;-83
2023/07/14 01:45:11;;;;;;;;;;;14.20;99.90;;;;;;5040734;28;19974;-84
2023/07/14 01:47:37;;;;;;;;;;;14.20;99.90;;;;;;5051238;28;19928;-84
2023/07/14 01:50:03;;;;;;;;;;;14.20;99.90;;;;;;5050596;28;19936;-85
2023/07/14 01:52:30;;;;;;;;;;;14.20;99.90;;;;;;5034001;28;19931;-83
2023/07/14 01:54:58;;;;;;;;;;;14.10;99.90;;;;;;5066264;28;19952;-84
2023/07/14 01:57:25;;;;;;;;;;;14.10;99.90;;;;;;5043301;28;19928;-85
2023/07/14 01:59:54;;;;;;;;;;;14.10;99.90;;;;;;5037708;28;19924;-83
2023/07/14 02:02:32;;;;;;;;;;;14.10;99.90;;;;;;5064277;28;20007;-82
2023/07/14 02:04:59;;;;;;;;;;;14.10;99.90;;;;;;5057095;28;19948;-83
2023/07/14 02:07:25;;;;;;;;;;;14.10;99.90;;;;;;5053904;28;19929;-83
2023/07/14 02:09:50;;;;;;;;;;;14.10;99.90;;;;;;5038093;28;19928;-87
2023/07/14 02:12:24;;;;;;;;;;;14.10;99.90;;;;;;5060741;28;19928;-83
2023/07/14 02:14:49;;;;;;;;;;;14.10;99.90;;;;;;5056980;28;20020;-84
2023/07/14 02:17:21;;;;;;;;;;;14.00;99.90;;;;;;5063486;28;20030;-83
2023/07/14 02:19:47;;;;;;;;;;;14.00;99.90;;;;;;5060716;28;20333;-84
2023/07/14 02:22:12;;;;;;;;;;;14.00;99.90;;;;;;5050707;28;19928;-84
2023/07/14 02:24:38;;;;;;;;;;;14.00;99.90;;;;;;5049441;28;19925;-83
2023/07/14 02:27:04;;;;;;;;;;;14.00;99.90;;;;;;5060557;28;19971;-83
2023/07/14 02:29:30;;;;;;;;;;;14.00;99.90;;;;;;5033877;28;19925;-84
2023/07/14 02:31:57;;;;;;;;;;;14.00;99.90;;;;;;5051606;28;19932;-83
2023/07/14 02:34:26;;;;;;;;;;;14.00;99.90;;;;;;5042893;28;20330;-84
2023/07/14 02:36:56;;;;;;;;;;;14.00;99.90;;;;;;5055126;28;20291;-83
2023/07/14 02:39:21;;;;;;;;;;;14.00;99.90;;;;;;5062088;28;19925;-84
2023/07/14 02:41:49;;;;;;;;;;;14.00;99.90;;;;;;5033107;28;20381;-84
2023/07/14 02:44:15;;;;;;;;;;;13.90;99.90;;;;;;5051450;28;19932;-84
2023/07/14 02:46:49;;;;;;;;;;;13.90;99.90;;;;;;5054580;28;19925;-83
2023/07/14 02:49:15;;;;;;;;;;;13.90;99.90;;;;;;5039226;28;20041;-83
2023/07/14 02:51:40;;;;;;;;;;;13.90;99.90;;;;;;5050308;28;19968;-83
2023/07/14 02:54:06;;;;;;;;;;;13.90;99.90;;;;;;5064205;28;19947;-84
2023/07/14 02:56:32;;;;;;;;;;;13.90;99.90;;;;;;5040148;28;19959;-87
2023/07/14 02:58:58;;;;;;;;;;;13.90;99.90;;;;;;5053829;28;20409;-84
2023/07/14 03:01:25;;;;;;;;;;;13.80;99.90;;;;;;5032532;28;19933;-83
2023/07/14 03:03:51;;;;;;;;;;;13.80;99.90;;;;;;5051119;28;19932;-84
2023/07/14 03:06:18;;;;;;;;;;;13.80;99.90;;;;;;5048952;28;19936;-83
2023/07/14 03:08:44;;;;;;;;;;;13.80;99.90;;;;;;5059127;28;20369;-83
2023/07/14 03:11:10;;;;;;;;;;;13.80;99.90;;;;;;5047180;28;19959;-84
2023/07/14 03:13:35;;;;;;;;;;;13.80;99.90;;;;;;5051045;28;19935;-85
2023/07/14 03:16:01;;;;;;;;;;;13.70;99.90;;;;;;5033754;28;19928;-84
2023/07/14 03:18:27;;;;;;;;;;;13.70;99.90;;;;;;5035015;28;19925;-84
2023/07/14 03:20:56;;;;;;;;;;;13.70;99.90;;;;;;5033190;28;19929;-84
2023/07/14 03:23:22;;;;;;;;;;;13.70;99.90;;;;;;5054106;28;19979;-85
2023/07/14 03:25:52;;;;;;;;;;;13.60;99.90;;;;;;5054693;28;19929;-85
2023/07/14 03:28:17;;;;;;;;;;;13.60;99.90;;;;;;5053782;28;19924;-84
2023/07/14 03:30:43;;;;;;;;;;;13.60;99.90;;;;;;5064721;28;20000;-84
2023/07/14 03:33:08;;;;;;;;;;;13.60;99.90;;;;;;5036674;28;19936;-84
2023/07/14 03:35:34;;;;;;;;;;;13.70;99.90;;;;;;5020312;28;19929;-84
2023/07/14 03:38:00;;;;;;;;;;;13.70;99.90;;;;;;5053935;28;20011;-83
2023/07/14 03:40:26;;;;;;;;;;;13.70;99.90;;;;;;5046482;28;19933;-84
2023/07/14 03:42:52;;;;;;;;;;;13.70;99.90;;;;;;5054018;28;19924;-85
2023/07/14 03:45:17;;;;;;;;;;;13.60;99.90;;;;;;5040685;28;19936;-83
2023/07/14 03:47:43;;;;;;;;;;;13.60;99.90;;;;;;5036885;28;19977;-88
2023/07/14 03:50:11;;;;;;;;;;;13.60;99.90;;;;;;5039898;28;20425;-84
2023/07/14 03:52:36;;;;;;;;;;;13.70;99.90;;;;;;5022382;28;19936;-84
2023/07/14 03:55:02;;;;;;;;;;;13.70;99.90;;;;;;5053874;28;19924;-84
2023/07/14 03:57:28;;;;;;;;;;;13.60;99.90;;;;;;5036304;28;20027;-86
2023/07/14 03:59:53;;;;;;;;;;;13.70;99.90;;;;;;5055129;28;20003;-84
2023/07/14 04:02:19;;;;;;;;;;;13.70;99.90;;;;;;5032133;28;19925;-84
2023/07/14 04:04:45;;;;;;;;;;;13.70;99.90;;;;;;5054001;28;19929;-84
2023/07/14 04:07:11;;;;;;;;;;;13.80;99.90;;;;;;5053830;28;19970;-84
2023/07/14 04:09:36;;;;;;;;;;;13.80;99.90;;;;;;5060296;28;20302;-84
2023/07/14 04:12:02;;;;;;;;;;;13.80;99.90;;;;;;5027035;28;19924;-84
2023/07/14 04:14:28;;;;;;;;;;;13.80;99.90;;;;;;5069246;28;19947;-84
2023/07/14 04:16:53;;;;;;;;;;;13.90;99.90;;;;;;5052992;28;19928;-84
2023/07/14 04:19:19;;;;;;;;;;;13.90;99.90;;;;;;5039574;28;20409;-84
2023/07/14 04:21:46;;;;;;;;;;;14.00;99.90;;;;;;5052611;28;19925;-85
2023/07/14 04:24:11;;;;;;;;;;;14.10;99.90;;;;;;5054254;28;19994;-88
2023/07/14 04:26:37;;;;;;;;;;;14.10;99.90;;;;;;5056803;28;20379;-84
2023/07/14 04:29:05;;;;;;;;;;;14.30;99.90;;;;;;5047132;28;20346;-83
2023/07/14 04:31:30;;;;;;;;;;;14.40;99.90;;;;;;5036372;28;19929;-88
2023/07/14 04:33:56;;;;;;;;;;;14.40;99.90;;;;;;5052589;28;19933;-84
2023/07/14 04:36:22;;;;;;;;;;;14.50;99.90;;;;;;5068777;28;19925;-84
2023/07/14 04:39:03;;;;;;;;;;;14.60;99.90;;;;;;5053562;28;19932;-85
2023/07/14 04:41:29;;;;;;;;;;;14.60;99.90;;;;;;5052071;28;19935;-84
2023/07/14 04:43:54;;;;;;;;;;;14.70;99.90;;;;;;5035743;28;19933;-87
2023/07/14 04:46:20;;;;;;;;;;;14.70;99.90;;;;;;5052701;28;19952;-84
2023/07/14 04:48:48;;;;;;;;;;;14.80;99.90;;;;;;5035050;28;19929;-85
2023/07/14 04:51:13;;;;;;;;;;;14.80;99.90;;;;;;5046475;28;19932;-84
2023/07/14 04:53:39;;;;;;;;;;;14.90;99.90;;;;;;5052933;28;19929;-84
2023/07/14 04:56:04;;;;;;;;;;;14.90;99.90;;;;;;5035247;28;20065;-84
2023/07/14 04:58:30;;;;;;;;;;;15.00;99.90;;;;;;5034019;28;19931;-85
2023/07/14 05:00:56;;;;;;;;;;;15.00;99.90;;;;;;5049976;28;20349;-84
2023/07/14 05:03:23;;;;;;;;;;;15.10;99.90;;;;;;5042895;28;19924;-84
2023/07/14 05:05:49;;;;;;;;;;;15.20;99.90;;;;;;5035335;28;20023;-84
2023/07/14 05:08:14;;;;;;;;;;;15.20;99.90;;;;;;5052676;28;20055;-84
2023/07/14 05:10:40;;;;;;;;;;;15.30;99.90;;;;;;5034552;28;19925;-84
2023/07/14 05:13:06;;;;;;;;;;;15.30;99.90;;;;;;5017932;28;20009;-84
2023/07/14 05:15:32;;;;;;;;;;;15.40;99.90;;;;;;5064226;28;19998;-85
2023/07/14 05:17:57;;;;;;;;;;;15.40;99.90;;;;;;5054654;28;19925;-85
2023/07/14 05:20:23;;;;;;;;;;;15.50;99.90;;;;;;5052316;28;19936;-85
2023/07/14 05:22:50;;;;;;;;;;;15.60;99.90;;;;;;5051964;28;20275;-84
2023/07/14 05:25:16;;;;;;;;;;;15.60;99.90;;;;;;5042297;28;19929;-84
2023/07/14 05:27:45;;;;;;;;;;;15.60;99.90;;;;;;5034972;28;19979;-86
2023/07/14 05:30:14;;;;;;;;;;;15.70;99.90;;;;;;5053519;28;19925;-84
2023/07/14 05:32:40;;;;;;;;;;;15.70;99.90;;;;;;5037721;28;20342;-84
2023/07/14 05:35:06;;;;;;;;;;;15.80;99.90;;;;;;5051055;28;19964;-85
2023/07/14 05:37:32;;;;;;;;;;;15.90;99.90;;;;;;5034146;28;19924;-87
2023/07/14 05:39:57;;;;;;;;;;;16.20;99.90;;;;;;5054991;28;19978;-84
2023/07/14 05:42:23;;;;;;;;;;;16.70;99.90;;;;;;5049949;28;19936;-84
2023/07/14 05:44:49;;;;;;;;;;;17.30;99.90;;;;;;5050816;28;19925;-84
2023/07/14 05:47:14;;;;;;;;;;;17.80;99.90;;;;;;5042091;28;20371;-85
2023/07/14 05:49:40;;;;;;;;;;;18.30;99.90;;;;;;5052183;28;19929;-85
2023/07/14 05:52:09;;;;;;;;;;;18.70;99.90;;;;;;5033762;28;19929;-84
2023/07/14 05:54:35;;;;;;;;;;;19.20;99.90;;;;;;5051643;28;19935;-84
2023/07/14 05:57:00;;;;;;;;;;;19.70;99.90;;;;;;5037599;28;20232;-86
2023/07/14 05:59:27;;;;;;;;;;;20.10;99.90;;;;;;5034158;28;20375;-85
2023/07/14 06:01:52;;;;;;;;;;;20.50;99.90;;;;;;5034174;28;20047;-86
2023/07/14 06:04:18;;;;;;;;;;;20.90;99.90;;;;;;5032307;28;20355;-86
2023/07/14 06:06:43;;;;;;;;;;;21.20;99.90;;;;;;5043399;28;19925;-85
2023/07/14 06:09:12;;;;;;;;;;;21.40;99.90;;;;;;5038733;28;19977;-85
2023/07/14 06:11:38;;;;;;;;;;;21.60;99.90;;;;;;5033644;28;19929;-85
2023/07/14 06:14:03;;;;;;;;;;;21.80;99.90;;;;;;5048827;28;19951;-85
2023/07/14 06:16:29;;;;;;;;;;;22.00;99.90;;;;;;5031284;28;20125;-86
2023/07/14 06:18:55;;;;;;;;;;;22.10;99.90;;;;;;5034360;28;19939;-86
2023/07/14 06:21:20;;;;;;;;;;;22.30;99.90;;;;;;5059068;28;20367;-85
2023/07/14 06:23:46;;;;;;;;;;;22.50;99.90;;;;;;5046029;28;19929;-86
2023/07/14 06:26:12;;;;;;;;;;;22.70;99.90;;;;;;5030646;28;20326;-86
2023/07/14 06:28:38;;;;;;;;;;;22.80;99.90;;;;;;5018695;28;19924;-86
2023/07/14 06:31:05;;;;;;;;;;;23.00;99.90;;;;;;5052988;28;20299;-84
2023/07/14 06:33:31;;;;;;;;;;;23.20;99.90;;;;;;5055465;28;19925;-87
2023/07/14 06:35:57;;;;;;;;;;;23.30;99.90;;;;;;5027556;28;19959;-84
2023/07/14 06:38:26;;;;;;;;;;;23.50;99.90;;;;;;5035576;28;19925;-87
2023/07/14 06:41:01;;;;;;;;;;;23.60;99.90;;;;;;5056958;28;19929;-85
2023/07/14 06:43:27;;;;;;;;;;;23.80;99.90;;;;;;5054203;28;19959;-86
2023/07/14 06:45:52;;;;;;;;;;;23.90;99.90;;;;;;5052740;28;19929;-85
2023/07/14 06:48:18;;;;;;;;;;;24.10;99.90;;;;;;5048352;28;19976;-83
2023/07/14 06:50:44;;;;;;;;;;;24.20;99.90;;;;;;5047624;28;20024;-88
2023/07/14 06:53:10;;;;;;;;;;;24.30;99.90;;;;;;5034688;28;20282;-84
2023/07/14 06:55:36;;;;;;;;;;;24.40;99.90;;;;;;5025267;28;19935;-87
2023/07/14 06:58:03;;;;;;;;;;;24.50;99.90;;;;;;5048944;28;19933;-87
2023/07/14 07:00:30;;;;;;;;;;;24.70;99.90;;;;;;5035256;28;19925;-86
2023/07/14 07:02:55;;;;;;;;;;;24.70;99.90;;;;;;5041434;28;19924;-85
2023/07/14 07:05:21;;;;;;;;;;;24.70;99.90;;;;;;5043380;28;19948;-90
2023/07/14 07:07:46;;;;;;;;;;;24.90;99.90;;;;;;5040377;28;20015;-89
2023/07/14 07:10:12;;;;;;;;;;;24.90;99.90;;;;;;5037914;28;19929;-88
2023/07/14 07:12:38;;;;;;;;;;;25.00;99.90;;;;;;5064990;28;19928;-86
2023/07/14 07:15:03;;;;;;;;;;;25.10;99.90;;;;;;5040610;28;19929;-90
2023/07/14 07:17:29;;;;;;;;;;;25.10;99.90;;;;;;5033840;28;20314;-88
2023/07/14 07:19:54;;;;;;;;;;;25.10;99.90;;;;;;5055045;28;19935;-87
2023/07/14 07:22:20;;;;;;;;;;;25.30;99.90;;;;;;5020499;28;19924;-88
2023/07/14 07:24:46;;;;;;;;;;;25.30;99.90;;;;;;5067076;28;20390;-86
2023/07/14 07:27:11;;;;;;;;;;;25.30;99.90;;;;;;5058982;28;20011;-87
2023/07/14 07:29:39;;;;;;;;;;;25.40;99.90;;;;;;5052622;28;20333;-87
2023/07/14 07:32:05;;;;;;;;;;;25.40;99.90;;;;;;5054688;28;19924;-86
2023/07/14 07:34:30;;;;;;;;;;;25.50;99.90;;;;;;5037090;28;20449;-87
2023/07/14 07:36:56;;;;;;;;;;;25.60;99.90;;;;;;5055056;28;20364;-87
2023/07/14 07:39:21;;;;;;;;;;;25.70;99.90;;;;;;5061657;28;19924;-86
2023/07/14 07:41:47;;;;;;;;;;;25.60;99.90;;;;;;5057718;28;19955;-87
2023/07/14 07:44:12;;;;;;;;;;;25.70;99.90;;;;;;5053758;28;19943;-86
2023/07/14 07:46:38;;;;;;;;;;;25.80;99.90;;;;;;5033240;28;19933;-84
2023/07/14 07:49:03;;;;;;;;;;;25.80;99.90;;;;;;5041391;28;20256;-88
2023/07/14 07:51:30;;;;;;;;;;;25.90;99.90;;;;;;5042589;28;19929;-86
2023/07/14 07:53:55;;;;;;;;;;;25.90;99.90;;;;;;5053447;28;20391;-88
2023/07/14 07:56:21;;;;;;;;;;;25.90;99.90;;;;;;5036086;28;20015;-85
2023/07/14 07:58:47;;;;;;;;;;;25.80;99.90;;;;;;5049391;28;20012;-88
2023/07/14 08:01:20;;;;;;;;;;;25.80;99.80;;;;;;5067058;28;19978;-84
2023/07/14 08:03:46;;;;;;;;;;;25.80;99.60;;;;;;5036264;28;20677;-86
2023/07/14 08:06:12;;;;;;;;;;;25.80;99.90;;;;;;5054151;28;20286;-85
2023/07/14 08:08:38;;;;;;;;;;;25.70;97.80;;;;;;5036602;28;20440;-87
2023/07/14 08:11:07;;;;;;;;;;;25.70;99.70;;;;;;5035461;28;20007;-86
2023/07/14 08:13:32;;;;;;;;;;;25.50;99.90;;;;;;5028018;28;19929;-86
2023/07/14 08:15:58;;;;;;;;;;;25.60;99.90;;;;;;5057698;28;20012;-85
2023/07/14 08:18:24;;;;;;;;;;;25.50;99.90;;;;;;5052705;28;19933;-84
2023/07/14 08:20:49;;;;;;;;;;;25.60;99.90;;;;;;5052715;28;19929;-85
2023/07/14 08:23:16;;;;;;;;;;;25.50;99.20;;;;;;5053300;28;20385;-85
2023/07/14 08:25:42;;;;;;;;;;;25.40;99.90;;;;;;5036062;28;19948;-85
2023/07/14 08:28:08;;;;;;;;;;;25.20;99.50;;;;;;5050941;28;20362;-86
2023/07/14 08:30:33;;;;;;;;;;;25.10;99.30;;;;;;5055820;28;19924;-84
2023/07/14 08:32:59;;;;;;;;;;;25.00;99.90;;;;;;5066728;28;19929;-85
2023/07/14 08:35:25;;;;;;;;;;;24.80;99.20;;;;;;5048781;28;19928;-85
2023/07/14 08:37:50;;;;;;;;;;;24.70;99.90;;;;;;5065540;28;19924;-85
2023/07/14 08:40:23;;;;;;;;;;;24.70;99.90;;;;;;5064075;28;20275;-85
2023/07/14 08:42:48;;;;;;;;;;;24.70;99.90;;;;;;5062852;28;20015;-87
2023/07/14 08:45:32;;;;;;;;;;;24.70;99.90;;;;;;5067159;28;20013;-86
2023/07/14 08:48:00;;;;;;;;;;;24.60;99.90;;;;;;5059521;28;20043;-85
2023/07/14 08:50:28;;;;;;;;;;;24.70;99.90;;;;;;5056281;28;20097;-87
2023/07/14 08:52:56;;;;;;;;;;;24.70;99.90;;;;;;5038875;28;19959;-84
2023/07/14 08:55:24;;;;;;;;;;;24.70;99.90;;;;;;5053989;28;19935;-85
2023/07/14 08:57:54;;;;;;;;;;;24.70;99.90;;;;;;5035880;28;19924;-85
2023/07/14 09:00:40;;;;;;;;;;;24.50;99.90;;;;;;5053201;28;19932;-85
2023/07/14 09:03:09;;;;;;;;;;;24.20;99.90;;;;;;5042762;28;19924;-86
2023/07/14 09:05:36;;;;;;;;;;;24.30;99.90;;;;;;5056938;28;20039;-87
2023/07/14 09:08:03;;;;;;;;;;;24.40;99.90;;;;;;5052522;28;19933;-84
2023/07/14 09:10:44;;;;;;;;;;;24.20;99.90;;;;;;5059051;28;19986;-86
2023/07/14 09:13:21;;;;;;;;;;;24.00;99.90;;;;;;5038964;28;19925;-84
2023/07/14 09:15:46;;;;;;;;;;;23.90;99.90;;;;;;5052522;28;19932;-85
2023/07/14 09:18:18;;;;;;;;;;;23.70;99.90;;;;;;5035087;28;19925;-85
2023/07/14 09:20:58;;;;;;;;;;;23.40;99.90;;;;;;5051871;28;19978;-86
2023/07/14 09:23:24;;;;;;;;;;;23.20;99.90;;;;;;5022689;28;20431;-84
2023/07/14 09:26:01;;;;;;;;;;;22.90;99.90;;;;;;5060963;28;19972;-85
2023/07/14 09:28:35;;;;;;;;;;;22.70;99.90;;;;;;5044916;28;19929;-84
2023/07/14 09:31:06;;;;;;;;;;;22.60;99.90;;;;;;5061162;28;19924;-86
2023/07/14 09:33:40;;;;;;;;;;;22.90;99.90;;;;;;5017129;28;19924;-87
2023/07/14 09:36:09;;;;;;;;;;;23.50;99.90;;;;;;5054300;28;20383;-90
2023/07/14 09:38:45;;;;;;;;;;;23.80;99.90;;;;;;5051937;28;19971;-89
2023/07/14 09:41:15;;;;;;;;;;;24.10;99.90;;;;;;5034740;28;20401;-87
2023/07/14 09:43:40;;;;;;;;;;;24.20;99.90;;;;;;5058811;28;20017;-89
2023/07/14 09:46:08;;;;;;;;;;;24.50;99.90;;;;;;5046697;28;20713;-88
2023/07/14 09:48:34;;;;;;;;;;;24.80;98.40;;;;;;5035190;28;19928;-88
2023/07/14 09:51:00;;;;;;;;;;;25.10;99.80;;;;;;5062109;28;19969;-90
2023/07/14 09:53:26;;;;;;;;;;;25.40;98.80;;;;;;5050642;28;20020;-88
2023/07/14 09:55:59;;;;;;;;;;;25.60;99.60;;;;;;5039406;28;19925;-87
2023/07/14 09:58:27;;;;;;;;;;;25.80;95.90;;;;;;5043500;28;19929;-88
2023/07/14 10:00:54;;;;;;;;;;;25.80;96.00;;;;;;5056523;28;20291;-91
2023/07/14 10:03:20;;;;;;;;;;;25.80;96.40;;;;;;5039987;28;19924;-88
2023/07/14 10:05:51;;;;;;;;;;;25.50;93.30;;;;;;5047556;28;19932;-86
2023/07/14 10:08:36;;;;;;;;;;;25.40;94.50;;;;;;5046581;28;19925;-87
2023/07/14 10:11:29;;;;;;;;;;;25.40;95.80;;;;;;5048093;28;19939;-85
2023/07/14 10:13:57;;;;;;;;;;;25.40;92.20;;;;;;5042479;28;20437;-85
2023/07/14 10:16:24;;;;;;;;;;;25.50;94.00;;;;;;5050718;28;20325;-87
2023/07/14 10:18:54;;;;;;;;;;;25.70;92.30;;;;;;5014884;28;20643;-86
2023/07/14 10:21:26;;;;;;;;;;;25.80;95.60;;;;;;5033462;28;20355;-84
2023/07/14 10:24:05;;;;;;;;;;;25.90;92.70;;;;;;5051145;28;19932;-85
2023/07/14 10:26:35;;;;;;;;;;;25.90;94.10;;;;;;5051384;28;20074;-86
2023/07/14 10:29:03;;;;;;;;;;;26.00;93.70;;;;;;5060396;28;20363;-85
2023/07/14 10:31:33;;;;;;;;;;;26.00;95.10;;;;;;5058142;28;20015;-85
2023/07/14 10:34:07;;;;;;;;;;;25.90;94.50;;;;;;5059835;28;19986;-86
2023/07/14 10:36:37;;;;;;;;;;;25.70;93.10;;;;;;5048519;28;20015;-86
2023/07/14 10:39:09;;;;;;;;;;;25.40;93.50;;;;;;5062514;28;19936;-85
2023/07/14 10:41:36;;;;;;;;;;;25.20;94.30;;;;;;5057649;28;19924;-87
2023/07/14 10:44:05;;;;;;;;;;;24.90;95.20;;;;;;5061197;28;19947;-86
2023/07/14 10:46:39;;;;;;;;;;;24.70;94.70;;;;;;5059792;28;19932;-87
2023/07/14 10:49:20;;;;;;;;;;;24.50;93.90;;;;;;5064192;28;20449;-88
2023/07/14 10:51:49;;;;;;;;;;;24.50;95.40;;;;;;5040688;28;19936;-84
2023/07/14 10:54:31;;;;;;;;;;;24.40;94.90;;;;;;5055489;28;20331;-85
2023/07/14 10:57:03;;;;;;;;;;;24.30;95.60;;;;;;5054483;28;20474;-86
2023/07/14 10:59:50;;;;;;;;;;;24.10;95.10;;;;;;5064295;28;19932;-86
2023/07/14 11:02:19;;;;;;;;;;;23.90;96.00;;;;;;5052547;28;19975;-85
2023/07/14 11:04:59;;;;;;;;;;;23.60;95.00;;;;;;5054493;28;20024;-84
2023/07/14 11:07:29;;;;;;;;;;;23.40;96.10;;;;;;5055140;28;20019;-85
2023/07/14 11:09:55;;;;;;;;;;;23.40;96.60;;;;;;5037482;28;20015;-84
2023/07/14 11:12:39;;;;;;;;;;;23.40;96.50;;;;;;5054274;28;20119;-85
2023/07/14 11:15:15;;;;;;;;;;;23.30;96.80;;;;;;5025628;28;19925;-85
2023/07/14 11:17:40;;;;;;;;;;;23.20;97.40;;;;;;5052955;28;19982;-85
2023/07/14 11:20:23;;;;;;;;;;;23.20;97.90;;;;;;5054899;28;19929;-85
2023/07/14 11:22:58;;;;;;;;;;;23.20;99.20;;;;;;5052857;28;19925;-86
2023/07/14 11:25:29;;;;;;;;;;;23.20;98.60;;;;;;5054626;28;19936;-86
2023/07/14 11:28:11;;;;;;;;;;;23.10;98.00;;;;;;5038087;28;19924;-86
2023/07/14 11:30:39;;;;;;;;;;;23.20;98.70;;;;;;5051194;28;19929;-89
2023/07/14 11:33:05;;;;;;;;;;;23.00;98.60;;;;;;5060354;28;19925;-86
2023/07/14 11:35:33;;;;;;;;;;;23.00;99.40;;;;;;5036949;28;19936;-88
2023/07/14 11:38:05;;;;;;;;;;;22.90;99.70;;;;;;5036730;28;20367;-88
2023/07/14 11:40:36;;;;;;;;;;;23.00;99.10;;;;;;5054760;28;19936;-85
2023/07/14 11:43:02;;;;;;;;;;;22.90;99.00;;;;;;5054048;28;20416;-85
2023/07/14 11:45:28;;;;;;;;;;;23.10;99.40;;;;;;5039780;28;19929;-90
2023/07/14 11:47:58;;;;;;;;;;;23.20;99.90;;;;;;5042255;28;19948;-86
2023/07/14 11:50:23;;;;;;;;;;;23.40;99.90;;;;;;5055290;28;19928;-88
2023/07/14 11:53:00;;;;;;;;;;;23.50;99.90;;;;;;5039664;28;20397;-86
2023/07/14 11:55:27;;;;;;;;;;;23.50;99.50;;;;;;5056084;28;19932;-88
2023/07/14 11:58:09;;;;;;;;;;;23.40;99.80;;;;;;5036400;28;19929;-87
2023/07/14 12:00:38;;;;;;;;;;;23.30;99.80;;;;;;5052459;28;20011;-87
2023/07/14 12:03:09;;;;;;;;;;;23.20;99.80;;;;;;5062059;28;20419;-85
2023/07/14 12:05:39;;;;;;;;;;;23.30;99.90;;;;;;5056607;28;19976;-88
2023/07/14 12:08:04;;;;;;;;;;;23.60;99.50;;;;;;5039261;28;20015;-88
2023/07/14 12:10:39;;;;;;;;;;;23.80;99.90;;;;;;5036096;28;20012;-85
2023/07/14 12:13:16;;;;;;;;;;;23.90;98.10;;;;;;5056321;28;19931;-86
2023/07/14 12:15:43;;;;;;;;;;;24.00;99.30;;;;;;5043196;28;20066;-88
2023/07/14 12:18:28;;;;;;;;;;;24.20;98.90;;;;;;5035886;28;19928;-87
2023/07/14 12:21:12;;;;;;;;;;;24.50;99.50;;;;;;5052865;28;19928;-87
2023/07/14 12:23:38;;;;;;;;;;;24.90;98.90;;;;;;5041643;28;19932;-88
2023/07/14 12:26:08;;;;;;;;;;;25.30;99.20;;;;;;5049929;28;19935;-87
2023/07/14 12:28:36;;;;;;;;;;;25.40;96.90;;;;;;5049882;28;19924;-86
2023/07/14 12:31:22;;;;;;;;;;;25.50;97.70;;;;;;5045211;28;19925;-86
2023/07/14 12:33:48;;;;;;;;;;;25.40;96.90;;;;;;5051141;28;19928;-85
2023/07/14 12:36:15;;;;;;;;;;;25.30;97.10;;;;;;5035616;28;19948;-85
2023/07/14 12:38:44;;;;;;;;;;;25.10;95.80;;;;;;5039043;28;19929;-85
2023/07/14 12:41:10;;;;;;;;;;;24.80;96.80;;;;;;5052781;28;19924;-86
2023/07/14 12:43:40;;;;;;;;;;;24.70;97.10;;;;;;5037144;28;19933;-85
2023/07/14 12:46:25;;;;;;;;;;;24.70;97.20;;;;;;5073377;28;19985;-85
2023/07/14 12:48:56;;;;;;;;;;;24.70;96.90;;;;;;5034899;28;20016;-86
2023/07/14 12:51:22;;;;;;;;;;;24.70;98.30;;;;;;5042498;28;20306;-87
2023/07/14 12:54:01;;;;;;;;;;;24.70;98.30;;;;;;5022372;28;19933;-85
2023/07/14 12:56:30;;;;;;;;;;;24.70;97.70;;;;;;5039914;28;20303;-87
2023/07/14 12:58:57;;;;;;;;;;;24.70;98.70;;;;;;5041256;28;20307;-84
2023/07/14 13:01:23;;;;;;;;;;;24.70;96.70;;;;;;5016551;28;20529;-85
2023/07/14 13:03:49;;;;;;;;;;;24.70;97.10;;;;;;5048681;28;20047;-83
2023/07/14 13:06:19;;;;;;;;;;;24.60;97.20;;;;;;5053872;28;20390;-85
2023/07/14 13:08:49;;;;;;;;;;;24.50;98.10;;;;;;5058245;28;19925;-85
2023/07/14 13:11:22;;;;;;;;;;;24.30;97.40;;;;;;5029691;28;19936;-88
2023/07/14 13:13:52;;;;;;;;;;;24.20;98.30;;;;;;5062972;28;19928;-85
2023/07/14 13:16:18;;;;;;;;;;;24.00;97.70;;;;;;5035343;28;19924;-88
2023/07/14 13:18:53;;;;;;;;;;;23.80;98.50;;;;;;5052641;28;19928;-87
2023/07/14 13:21:33;;;;;;;;;;;23.80;98.60;;;;;;5056208;28;20428;-85
2023/07/14 13:24:07;;;;;;;;;;;23.80;99.00;;;;;;5061090;28;19932;-90
2023/07/14 13:26:44;;;;;;;;;;;23.80;99.90;;;;;;5046580;28;20458;-85
2023/07/14 13:29:13;;;;;;;;;;;23.90;99.70;;;;;;5051231;28;19924;-89
2023/07/14 13:31:38;;;;;;;;;;;23.90;99.50;;;;;;5032729;28;19951;-87
2023/07/14 13:34:17;;;;;;;;;;;23.80;99.20;;;;;;5052245;28;19928;-85
2023/07/14 13:36:42;;;;;;;;;;;23.80;98.60;;;;;;5052238;28;19932;-85
2023/07/14 13:39:18;;;;;;;;;;;23.70;99.90;;;;;;5052473;28;19925;-85
2023/07/14 13:41:45;;;;;;;;;;;23.70;99.90;;;;;;5051666;28;20011;-85
2023/07/14 13:44:37;;;;;;;;;;;23.70;99.90;;;;;;5062735;28;19925;-85
2023/07/14 13:47:14;;;;;;;;;;;23.80;99.90;;;;;;5019077;28;20059;-84
2023/07/14 13:49:40;;;;;;;;;;;23.80;99.90;;;;;;5047229;28;19931;-85
2023/07/14 13:52:13;;;;;;;;;;;23.80;99.90;;;;;;5020063;28;19924;-86
2023/07/14 13:54:39;;;;;;;;;;;23.80;99.90;;;;;;5038265;28;20031;-85
2023/07/14 13:57:08;;;;;;;;;;;23.90;99.90;;;;;;5051765;28;19928;-87
2023/07/14 13:59:34;;;;;;;;;;;24.10;99.90;;;;;;5033661;28;20276;-85
2023/07/14 14:02:01;;;;;;;;;;;24.20;98.90;;;;;;5051725;28;19936;-88
2023/07/14 14:04:27;;;;;;;;;;;24.30;98.50;;;;;;5050589;28;19928;-85
2023/07/14 14:06:54;;;;;;;;;;;24.40;98.80;;;;;;5051764;28;20424;-85
2023/07/14 14:09:20;;;;;;;;;;;24.60;97.50;;;;;;5051798;28;19925;-86
2023/07/14 14:11:49;;;;;;;;;;;24.60;97.10;;;;;;5051831;28;19929;-84
2023/07/14 14:14:15;;;;;;;;;;;24.80;96.10;;;;;;5039531;28;19932;-85
2023/07/14 14:16:42;;;;;;;;;;;24.90;95.30;;;;;;5051266;28;20363;-85
2023/07/14 14:19:10;;;;;;;;;;;25.00;95.80;;;;;;5051549;28;19933;-86
2023/07/14 14:21:36;;;;;;;;;;;25.20;97.60;;;;;;5052217;28;19931;-86
2023/07/14 14:24:01;;;;;;;;;;;25.40;95.70;;;;;;5055217;28;19997;-85